sensor_id;sensor_type;location;lat;lon;timestamp;P1;durP1;ratioP1;P2;durP2;ratioP2
57047;SDS011;42934;54.294;18.598;2023-09-12T00:01:50;22.75;;;20.45;;
57047;SDS011;42934;54.294;18.598;2023-09-12T00:04:19;27.13;;;20.00;;
57047;SDS011;42934;54.294;18.598;2023-09-12T00:06:49;24.60;;;20.42;;
57047;SDS011;42934;54.294;18.598;2023-09-12T00:09:18;24.55;;;20.17;;
57047;SDS011;42934;54.294;18.598;2023-09-12T00:11:47;25.90;;;20.65;;
57047;SDS011;42934;54.294;18.598;2023-09-12T00:14:18;24.27;;;20.67;;
57047;SDS011;42934;54.294;18.598;2023-09-12T00:16:47;24.02;;;20.00;;
57047;SDS011;42934;54.294;18.598;2023-09-12T00:19:18;24.92;;;19.83;;
57047;SDS011;42934;54.294;18.598;2023-09-12T00:21:47;22.38;;;19.48;;
57047;SDS011;42934;54.294;18.598;2023-09-12T00:24:16;24.48;;;19.63;;
57047;SDS011;42934;54.294;18.598;2023-09-12T00:26:46;23.58;;;19.58;;
57047;SDS011;42934;54.294;18.598;2023-09-12T00:29:15;24.13;;;19.95;;
57047;SDS011;42934;54.294;18.598;2023-09-12T00:31:46;21.50;;;19.17;;
57047;SDS011;42934;54.294;18.598;2023-09-12T00:34:15;22.73;;;19.57;;
57047;SDS011;42934;54.294;18.598;2023-09-12T00:36:45;23.27;;;19.50;;
57047;SDS011;42934;54.294;18.598;2023-09-12T00:39:14;21.58;;;19.25;;
57047;SDS011;42934;54.294;18.598;2023-09-12T00:41:43;21.05;;;18.85;;
57047;SDS011;42934;54.294;18.598;2023-09-12T00:44:12;22.88;;;19.33;;
57047;SDS011;42934;54.294;18.598;2023-09-12T00:46:43;20.60;;;18.52;;
57047;SDS011;42934;54.294;18.598;2023-09-12T00:49:14;22.38;;;18.80;;
57047;SDS011;42934;54.294;18.598;2023-09-12T00:51:44;20.77;;;18.55;;
57047;SDS011;42934;54.294;18.598;2023-09-12T00:54:14;22.67;;;19.15;;
57047;SDS011;42934;54.294;18.598;2023-09-12T00:56:43;22.02;;;19.75;;
57047;SDS011;42934;54.294;18.598;2023-09-12T00:59:13;21.50;;;19.30;;
57047;SDS011;42934;54.294;18.598;2023-09-12T01:01:46;22.83;;;19.60;;
57047;SDS011;42934;54.294;18.598;2023-09-12T01:04:16;21.60;;;19.30;;
57047;SDS011;42934;54.294;18.598;2023-09-12T01:07:02;22.65;;;19.75;;
57047;SDS011;42934;54.294;18.598;2023-09-12T01:09:32;21.30;;;19.08;;
57047;SDS011;42934;54.294;18.598;2023-09-12T01:12:02;26.40;;;20.05;;
57047;SDS011;42934;54.294;18.598;2023-09-12T01:14:31;29.70;;;20.27;;
57047;SDS011;42934;54.294;18.598;2023-09-12T01:17:02;21.92;;;19.25;;
57047;SDS011;42934;54.294;18.598;2023-09-12T01:19:31;22.60;;;20.15;;
57047;SDS011;42934;54.294;18.598;2023-09-12T01:22:27;21.65;;;18.92;;
57047;SDS011;42934;54.294;18.598;2023-09-12T01:25:35;22.90;;;19.48;;
57047;SDS011;42934;54.294;18.598;2023-09-12T01:28:15;21.08;;;18.52;;
57047;SDS011;42934;54.294;18.598;2023-09-12T01:30:45;21.00;;;17.85;;
57047;SDS011;42934;54.294;18.598;2023-09-12T01:33:16;21.17;;;18.17;;
57047;SDS011;42934;54.294;18.598;2023-09-12T01:35:46;19.90;;;17.85;;
57047;SDS011;42934;54.294;18.598;2023-09-12T01:38:16;22.08;;;18.10;;
57047;SDS011;42934;54.294;18.598;2023-09-12T01:40:46;25.58;;;18.08;;
57047;SDS011;42934;54.294;18.598;2023-09-12T01:43:19;24.98;;;17.85;;
57047;SDS011;42934;54.294;18.598;2023-09-12T01:45:52;23.80;;;18.35;;
57047;SDS011;42934;54.294;18.598;2023-09-12T01:48:24;23.40;;;18.73;;
57047;SDS011;42934;54.294;18.598;2023-09-12T01:51:00;20.13;;;18.02;;
57047;SDS011;42934;54.294;18.598;2023-09-12T01:53:32;21.27;;;18.13;;
57047;SDS011;42934;54.294;18.598;2023-09-12T01:56:03;23.10;;;18.02;;
57047;SDS011;42934;54.294;18.598;2023-09-12T01:58:33;19.20;;;17.20;;
57047;SDS011;42934;54.294;18.598;2023-09-12T02:01:03;19.98;;;17.98;;
57047;SDS011;42934;54.294;18.598;2023-09-12T02:03:32;22.00;;;17.15;;
57047;SDS011;42934;54.294;18.598;2023-09-12T02:06:02;18.65;;;16.63;;
57047;SDS011;42934;54.294;18.598;2023-09-12T02:08:31;20.48;;;16.40;;
57047;SDS011;42934;54.294;18.598;2023-09-12T02:11:00;20.93;;;17.57;;
57047;SDS011;42934;54.294;18.598;2023-09-12T02:13:30;22.35;;;16.85;;
57047;SDS011;42934;54.294;18.598;2023-09-12T02:16:00;22.00;;;16.40;;
57047;SDS011;42934;54.294;18.598;2023-09-12T02:18:31;17.42;;;15.40;;
57047;SDS011;42934;54.294;18.598;2023-09-12T02:21:00;19.80;;;16.10;;
57047;SDS011;42934;54.294;18.598;2023-09-12T02:23:29;19.55;;;16.13;;
57047;SDS011;42934;54.294;18.598;2023-09-12T02:25:58;18.02;;;15.80;;
57047;SDS011;42934;54.294;18.598;2023-09-12T02:28:28;17.73;;;15.23;;
57047;SDS011;42934;54.294;18.598;2023-09-12T02:30:57;17.40;;;15.60;;
57047;SDS011;42934;54.294;18.598;2023-09-12T02:33:28;16.30;;;14.63;;
57047;SDS011;42934;54.294;18.598;2023-09-12T02:35:57;18.10;;;15.43;;
57047;SDS011;42934;54.294;18.598;2023-09-12T02:38:26;16.60;;;15.00;;
57047;SDS011;42934;54.294;18.598;2023-09-12T02:40:56;18.70;;;16.00;;
57047;SDS011;42934;54.294;18.598;2023-09-12T02:43:25;18.33;;;15.57;;
57047;SDS011;42934;54.294;18.598;2023-09-12T02:45:54;18.58;;;15.52;;
57047;SDS011;42934;54.294;18.598;2023-09-12T02:48:24;18.70;;;15.27;;
57047;SDS011;42934;54.294;18.598;2023-09-12T02:50:54;18.90;;;16.10;;
57047;SDS011;42934;54.294;18.598;2023-09-12T02:53:24;16.75;;;15.00;;
57047;SDS011;42934;54.294;18.598;2023-09-12T02:55:53;19.98;;;15.75;;
57047;SDS011;42934;54.294;18.598;2023-09-12T02:58:22;17.05;;;15.25;;
57047;SDS011;42934;54.294;18.598;2023-09-12T03:00:51;18.95;;;15.27;;
57047;SDS011;42934;54.294;18.598;2023-09-12T03:03:22;18.23;;;16.23;;
57047;SDS011;42934;54.294;18.598;2023-09-12T03:05:58;19.13;;;16.45;;
57047;SDS011;42934;54.294;18.598;2023-09-12T03:08:28;18.13;;;16.27;;
57047;SDS011;42934;54.294;18.598;2023-09-12T03:10:57;18.27;;;15.80;;
57047;SDS011;42934;54.294;18.598;2023-09-12T03:13:29;19.13;;;16.83;;
57047;SDS011;42934;54.294;18.598;2023-09-12T03:15:58;22.73;;;17.80;;
57047;SDS011;42934;54.294;18.598;2023-09-12T03:18:27;22.63;;;17.23;;
57047;SDS011;42934;54.294;18.598;2023-09-12T03:20:58;20.08;;;17.98;;
57047;SDS011;42934;54.294;18.598;2023-09-12T03:23:28;20.80;;;16.77;;
57047;SDS011;42934;54.294;18.598;2023-09-12T03:25:59;21.08;;;16.58;;
57047;SDS011;42934;54.294;18.598;2023-09-12T03:28:29;19.73;;;16.98;;
57047;SDS011;42934;54.294;18.598;2023-09-12T03:31:03;21.80;;;17.63;;
57047;SDS011;42934;54.294;18.598;2023-09-12T03:33:35;22.27;;;17.85;;
57047;SDS011;42934;54.294;18.598;2023-09-12T03:36:06;22.38;;;18.30;;
57047;SDS011;42934;54.294;18.598;2023-09-12T03:38:36;21.02;;;17.75;;
57047;SDS011;42934;54.294;18.598;2023-09-12T03:41:05;23.40;;;16.88;;
57047;SDS011;42934;54.294;18.598;2023-09-12T03:43:36;19.30;;;17.38;;
57047;SDS011;42934;54.294;18.598;2023-09-12T03:48:34;20.30;;;17.00;;
57047;SDS011;42934;54.294;18.598;2023-09-12T03:51:05;19.23;;;16.42;;
57047;SDS011;42934;54.294;18.598;2023-09-12T03:53:35;17.88;;;16.00;;
57047;SDS011;42934;54.294;18.598;2023-09-12T03:56:04;16.92;;;15.15;;
57047;SDS011;42934;54.294;18.598;2023-09-12T03:58:33;17.80;;;15.93;;
57047;SDS011;42934;54.294;18.598;2023-09-12T04:01:02;18.45;;;15.60;;
57047;SDS011;42934;54.294;18.598;2023-09-12T04:03:31;20.45;;;17.30;;
57047;SDS011;42934;54.294;18.598;2023-09-12T04:06:01;23.85;;;15.82;;
57047;SDS011;42934;54.294;18.598;2023-09-12T04:08:32;23.27;;;17.42;;
57047;SDS011;42934;54.294;18.598;2023-09-12T04:11:01;22.02;;;16.80;;
57047;SDS011;42934;54.294;18.598;2023-09-12T04:13:30;29.38;;;17.98;;
57047;SDS011;42934;54.294;18.598;2023-09-12T04:15:59;27.67;;;17.38;;
57047;SDS011;42934;54.294;18.598;2023-09-12T04:18:29;27.00;;;18.73;;
57047;SDS011;42934;54.294;18.598;2023-09-12T04:20:58;30.80;;;18.40;;
57047;SDS011;42934;54.294;18.598;2023-09-12T04:23:28;32.55;;;19.00;;
57047;SDS011;42934;54.294;18.598;2023-09-12T04:25:58;27.67;;;18.58;;
57047;SDS011;42934;54.294;18.598;2023-09-12T04:28:31;27.52;;;18.67;;
57047;SDS011;42934;54.294;18.598;2023-09-12T04:31:01;22.45;;;18.38;;
57047;SDS011;42934;54.294;18.598;2023-09-12T04:33:31;33.28;;;18.95;;
57047;SDS011;42934;54.294;18.598;2023-09-12T04:36:00;33.47;;;18.87;;
57047;SDS011;42934;54.294;18.598;2023-09-12T04:38:30;32.97;;;20.17;;
57047;SDS011;42934;54.294;18.598;2023-09-12T04:41:02;30.98;;;19.65;;
57047;SDS011;42934;54.294;18.598;2023-09-12T04:43:32;40.00;;;19.63;;
57047;SDS011;42934;54.294;18.598;2023-09-12T04:46:01;33.75;;;18.77;;
57047;SDS011;42934;54.294;18.598;2023-09-12T04:51:00;35.28;;;18.42;;
57047;SDS011;42934;54.294;18.598;2023-09-12T04:53:30;27.83;;;18.10;;
57047;SDS011;42934;54.294;18.598;2023-09-12T04:56:04;30.88;;;18.92;;
57047;SDS011;42934;54.294;18.598;2023-09-12T04:58:36;74.00;;;21.33;;
57047;SDS011;42934;54.294;18.598;2023-09-12T05:01:06;137.77;;;26.15;;
57047;SDS011;42934;54.294;18.598;2023-09-12T05:03:36;100.45;;;22.77;;
57047;SDS011;42934;54.294;18.598;2023-09-12T05:06:05;114.75;;;22.95;;
57047;SDS011;42934;54.294;18.598;2023-09-12T05:08:35;85.72;;;22.90;;
57047;SDS011;42934;54.294;18.598;2023-09-12T05:11:05;76.63;;;21.07;;
57047;SDS011;42934;54.294;18.598;2023-09-12T05:13:35;76.00;;;21.40;;
57047;SDS011;42934;54.294;18.598;2023-09-12T05:16:05;93.53;;;22.02;;
57047;SDS011;42934;54.294;18.598;2023-09-12T05:18:34;99.40;;;23.67;;
57047;SDS011;42934;54.294;18.598;2023-09-12T05:21:04;99.77;;;22.60;;
57047;SDS011;42934;54.294;18.598;2023-09-12T05:23:33;108.13;;;22.30;;
57047;SDS011;42934;54.294;18.598;2023-09-12T05:26:02;90.60;;;21.15;;
57047;SDS011;42934;54.294;18.598;2023-09-12T05:28:33;74.40;;;21.27;;
57047;SDS011;42934;54.294;18.598;2023-09-12T05:31:02;60.58;;;20.58;;
57047;SDS011;42934;54.294;18.598;2023-09-12T05:33:34;57.35;;;19.52;;
57047;SDS011;42934;54.294;18.598;2023-09-12T05:36:03;60.42;;;20.35;;
57047;SDS011;42934;54.294;18.598;2023-09-12T05:38:33;63.70;;;20.88;;
57047;SDS011;42934;54.294;18.598;2023-09-12T05:41:02;62.83;;;20.00;;
57047;SDS011;42934;54.294;18.598;2023-09-12T05:43:31;48.72;;;19.90;;
57047;SDS011;42934;54.294;18.598;2023-09-12T05:46:02;47.85;;;19.10;;
57047;SDS011;42934;54.294;18.598;2023-09-12T05:48:32;44.35;;;20.13;;
57047;SDS011;42934;54.294;18.598;2023-09-12T05:51:01;39.05;;;19.05;;
57047;SDS011;42934;54.294;18.598;2023-09-12T05:53:30;40.22;;;21.48;;
57047;SDS011;42934;54.294;18.598;2023-09-12T05:55:59;43.88;;;19.80;;
57047;SDS011;42934;54.294;18.598;2023-09-12T05:58:29;54.83;;;22.42;;
57047;SDS011;42934;54.294;18.598;2023-09-12T06:01:00;51.10;;;22.37;;
57047;SDS011;42934;54.294;18.598;2023-09-12T06:03:30;50.38;;;22.92;;
57047;SDS011;42934;54.294;18.598;2023-09-12T06:05:59;51.90;;;23.23;;
57047;SDS011;42934;54.294;18.598;2023-09-12T06:08:29;41.38;;;22.00;;
57047;SDS011;42934;54.294;18.598;2023-09-12T06:10:58;36.90;;;22.50;;
57047;SDS011;42934;54.294;18.598;2023-09-12T06:13:27;30.27;;;21.15;;
57047;SDS011;42934;54.294;18.598;2023-09-12T06:15:57;34.03;;;22.43;;
57047;SDS011;42934;54.294;18.598;2023-09-12T06:18:27;49.17;;;25.40;;
57047;SDS011;42934;54.294;18.598;2023-09-12T06:20:58;58.08;;;28.15;;
57047;SDS011;42934;54.294;18.598;2023-09-12T06:23:29;71.78;;;30.27;;
57047;SDS011;42934;54.294;18.598;2023-09-12T06:25:58;57.33;;;25.13;;
57047;SDS011;42934;54.294;18.598;2023-09-12T06:28:28;41.65;;;22.50;;
57047;SDS011;42934;54.294;18.598;2023-09-12T06:31:00;40.88;;;21.88;;
57047;SDS011;42934;54.294;18.598;2023-09-12T06:33:31;31.48;;;20.75;;
57047;SDS011;42934;54.294;18.598;2023-09-12T06:36:00;28.70;;;19.52;;
57047;SDS011;42934;54.294;18.598;2023-09-12T06:38:31;26.30;;;18.83;;
57047;SDS011;42934;54.294;18.598;2023-09-12T06:41:00;28.08;;;18.90;;
57047;SDS011;42934;54.294;18.598;2023-09-12T06:43:31;31.38;;;18.85;;
57047;SDS011;42934;54.294;18.598;2023-09-12T06:46:00;32.22;;;20.00;;
57047;SDS011;42934;54.294;18.598;2023-09-12T06:48:30;39.55;;;20.95;;
57047;SDS011;42934;54.294;18.598;2023-09-12T06:51:00;33.67;;;18.77;;
57047;SDS011;42934;54.294;18.598;2023-09-12T06:53:41;29.13;;;19.15;;
57047;SDS011;42934;54.294;18.598;2023-09-12T06:56:10;28.27;;;16.55;;
57047;SDS011;42934;54.294;18.598;2023-09-12T06:58:39;25.20;;;16.23;;
57047;SDS011;42934;54.294;18.598;2023-09-12T07:01:09;23.60;;;15.23;;
57047;SDS011;42934;54.294;18.598;2023-09-12T07:03:40;22.23;;;16.08;;
57047;SDS011;42934;54.294;18.598;2023-09-12T07:06:09;19.77;;;14.82;;
57047;SDS011;42934;54.294;18.598;2023-09-12T07:08:39;27.02;;;15.57;;
57047;SDS011;42934;54.294;18.598;2023-09-12T07:11:08;20.80;;;14.00;;
57047;SDS011;42934;54.294;18.598;2023-09-12T07:13:38;20.52;;;14.50;;
57047;SDS011;42934;54.294;18.598;2023-09-12T07:16:10;18.27;;;15.00;;
57047;SDS011;42934;54.294;18.598;2023-09-12T07:21:10;23.48;;;13.98;;
57047;SDS011;42934;54.294;18.598;2023-09-12T07:23:40;25.27;;;13.95;;
57047;SDS011;42934;54.294;18.598;2023-09-12T07:26:11;19.65;;;14.25;;
57047;SDS011;42934;54.294;18.598;2023-09-12T07:28:42;19.33;;;13.93;;
57047;SDS011;42934;54.294;18.598;2023-09-12T07:31:11;18.88;;;15.55;;
57047;SDS011;42934;54.294;18.598;2023-09-12T07:33:42;17.95;;;14.57;;
57047;SDS011;42934;54.294;18.598;2023-09-12T07:36:12;16.00;;;13.70;;
57047;SDS011;42934;54.294;18.598;2023-09-12T07:38:42;17.40;;;14.10;;
57047;SDS011;42934;54.294;18.598;2023-09-12T07:41:12;17.38;;;14.38;;
57047;SDS011;42934;54.294;18.598;2023-09-12T07:43:41;19.60;;;14.10;;
57047;SDS011;42934;54.294;18.598;2023-09-12T07:46:11;21.98;;;14.20;;
57047;SDS011;42934;54.294;18.598;2023-09-12T07:48:42;20.42;;;14.30;;
57047;SDS011;42934;54.294;18.598;2023-09-12T07:51:12;24.30;;;14.90;;
57047;SDS011;42934;54.294;18.598;2023-09-12T07:53:45;21.63;;;16.05;;
57047;SDS011;42934;54.294;18.598;2023-09-12T07:56:14;23.20;;;15.27;;
57047;SDS011;42934;54.294;18.598;2023-09-12T07:58:43;16.25;;;14.40;;
57047;SDS011;42934;54.294;18.598;2023-09-12T08:01:12;22.45;;;14.80;;
57047;SDS011;42934;54.294;18.598;2023-09-12T08:03:43;19.48;;;15.55;;
57047;SDS011;42934;54.294;18.598;2023-09-12T08:06:14;24.00;;;15.50;;
57047;SDS011;42934;54.294;18.598;2023-09-12T08:08:44;20.90;;;14.68;;
57047;SDS011;42934;54.294;18.598;2023-09-12T08:11:13;20.13;;;15.93;;
57047;SDS011;42934;54.294;18.598;2023-09-12T08:13:43;20.23;;;15.07;;
57047;SDS011;42934;54.294;18.598;2023-09-12T08:16:13;21.25;;;15.25;;
57047;SDS011;42934;54.294;18.598;2023-09-12T08:18:44;20.17;;;16.02;;
57047;SDS011;42934;54.294;18.598;2023-09-12T08:21:14;21.88;;;15.90;;
57047;SDS011;42934;54.294;18.598;2023-09-12T08:23:43;24.60;;;15.88;;
57047;SDS011;42934;54.294;18.598;2023-09-12T08:26:12;23.05;;;15.38;;
57047;SDS011;42934;54.294;18.598;2023-09-12T08:28:42;23.58;;;15.48;;
57047;SDS011;42934;54.294;18.598;2023-09-12T08:31:11;20.23;;;14.68;;
57047;SDS011;42934;54.294;18.598;2023-09-12T08:33:41;16.25;;;14.55;;
57047;SDS011;42934;54.294;18.598;2023-09-12T08:36:12;18.80;;;13.30;;
57047;SDS011;42934;54.294;18.598;2023-09-12T08:38:41;17.77;;;12.70;;
57047;SDS011;42934;54.294;18.598;2023-09-12T08:41:10;22.30;;;12.80;;
57047;SDS011;42934;54.294;18.598;2023-09-12T08:43:40;21.67;;;14.38;;
57047;SDS011;42934;54.294;18.598;2023-09-12T08:46:09;16.88;;;13.27;;
57047;SDS011;42934;54.294;18.598;2023-09-12T08:48:40;19.33;;;12.10;;
57047;SDS011;42934;54.294;18.598;2023-09-12T08:51:12;12.32;;;11.13;;
57047;SDS011;42934;54.294;18.598;2023-09-12T08:54:06;21.52;;;12.75;;
57047;SDS011;42934;54.294;18.598;2023-09-12T08:59:08;16.65;;;10.90;;
57047;SDS011;42934;54.294;18.598;2023-09-12T09:01:39;11.40;;;9.43;;
57047;SDS011;42934;54.294;18.598;2023-09-12T09:04:10;14.82;;;9.80;;
57047;SDS011;42934;54.294;18.598;2023-09-12T09:06:41;10.82;;;9.73;;
57047;SDS011;42934;54.294;18.598;2023-09-12T09:09:11;11.43;;;9.50;;
57047;SDS011;42934;54.294;18.598;2023-09-12T09:11:41;16.25;;;10.10;;
57047;SDS011;42934;54.294;18.598;2023-09-12T09:14:10;12.55;;;9.55;;
57047;SDS011;42934;54.294;18.598;2023-09-12T09:16:40;13.45;;;9.80;;
57047;SDS011;42934;54.294;18.598;2023-09-12T09:21:38;16.77;;;9.87;;
57047;SDS011;42934;54.294;18.598;2023-09-12T09:24:10;10.07;;;9.07;;
57047;SDS011;42934;54.294;18.598;2023-09-12T09:26:42;14.63;;;9.48;;
57047;SDS011;42934;54.294;18.598;2023-09-12T09:29:14;13.95;;;9.48;;
57047;SDS011;42934;54.294;18.598;2023-09-12T09:31:44;14.57;;;9.23;;
57047;SDS011;42934;54.294;18.598;2023-09-12T09:34:15;11.32;;;8.43;;
57047;SDS011;42934;54.294;18.598;2023-09-12T09:36:48;10.48;;;8.80;;
57047;SDS011;42934;54.294;18.598;2023-09-12T09:39:19;20.13;;;8.90;;
57047;SDS011;42934;54.294;18.598;2023-09-12T09:41:51;16.17;;;8.23;;
57047;SDS011;42934;54.294;18.598;2023-09-12T09:44:22;9.20;;;8.25;;
57047;SDS011;42934;54.294;18.598;2023-09-12T09:46:58;13.43;;;7.85;;
57047;SDS011;42934;54.294;18.598;2023-09-12T09:49:32;13.30;;;7.88;;
57047;SDS011;42934;54.294;18.598;2023-09-12T09:52:04;12.63;;;8.50;;
57047;SDS011;42934;54.294;18.598;2023-09-12T09:54:34;14.20;;;8.07;;
57047;SDS011;42934;54.294;18.598;2023-09-12T09:57:03;9.82;;;8.25;;
57047;SDS011;42934;54.294;18.598;2023-09-12T09:59:33;13.75;;;7.82;;
57047;SDS011;42934;54.294;18.598;2023-09-12T10:04:37;16.67;;;8.30;;
57047;SDS011;42934;54.294;18.598;2023-09-12T10:07:13;13.45;;;7.80;;
57047;SDS011;42934;54.294;18.598;2023-09-12T10:09:44;11.45;;;7.45;;
57047;SDS011;42934;54.294;18.598;2023-09-12T10:12:14;8.93;;;7.88;;
57047;SDS011;42934;54.294;18.598;2023-09-12T10:17:13;9.43;;;7.47;;
57047;SDS011;42934;54.294;18.598;2023-09-12T10:19:53;11.85;;;7.78;;
57047;SDS011;42934;54.294;18.598;2023-09-12T10:22:25;8.68;;;7.53;;
57047;SDS011;42934;54.294;18.598;2023-09-12T10:25:00;9.52;;;7.88;;
57047;SDS011;42934;54.294;18.598;2023-09-12T10:27:29;8.25;;;7.13;;
57047;SDS011;42934;54.294;18.598;2023-09-12T10:30:03;12.20;;;7.90;;
57047;SDS011;42934;54.294;18.598;2023-09-12T10:32:38;8.57;;;7.50;;
57047;SDS011;42934;54.294;18.598;2023-09-12T10:35:08;15.35;;;8.20;;
57047;SDS011;42934;54.294;18.598;2023-09-12T10:37:40;8.43;;;7.25;;
57047;SDS011;42934;54.294;18.598;2023-09-12T10:40:13;9.52;;;7.53;;
57047;SDS011;42934;54.294;18.598;2023-09-12T10:42:50;11.60;;;7.38;;
57047;SDS011;42934;54.294;18.598;2023-09-12T10:45:23;12.95;;;7.65;;
57047;SDS011;42934;54.294;18.598;2023-09-12T10:47:53;14.25;;;7.40;;
57047;SDS011;42934;54.294;18.598;2023-09-12T10:50:23;10.43;;;7.60;;
57047;SDS011;42934;54.294;18.598;2023-09-12T10:52:53;9.48;;;7.45;;
57047;SDS011;42934;54.294;18.598;2023-09-12T10:55:23;9.73;;;7.70;;
57047;SDS011;42934;54.294;18.598;2023-09-12T10:58:00;14.23;;;7.43;;
57047;SDS011;42934;54.294;18.598;2023-09-12T11:00:31;9.80;;;7.63;;
57047;SDS011;42934;54.294;18.598;2023-09-12T11:06:06;14.10;;;7.68;;
57047;SDS011;42934;54.294;18.598;2023-09-12T11:11:54;19.20;;;7.47;;
57047;SDS011;42934;54.294;18.598;2023-09-12T11:14:26;10.25;;;7.93;;
57047;SDS011;42934;54.294;18.598;2023-09-12T11:19:51;8.98;;;7.80;;
57047;SDS011;42934;54.294;18.598;2023-09-12T11:22:21;10.38;;;7.78;;
57047;SDS011;42934;54.294;18.598;2023-09-12T11:24:53;13.43;;;7.45;;
57047;SDS011;42934;54.294;18.598;2023-09-12T11:27:24;14.70;;;7.40;;
57047;SDS011;42934;54.294;18.598;2023-09-12T11:30:03;14.00;;;8.40;;
57047;SDS011;42934;54.294;18.598;2023-09-12T11:32:34;15.88;;;7.97;;
57047;SDS011;42934;54.294;18.598;2023-09-12T11:35:05;28.23;;;8.55;;
57047;SDS011;42934;54.294;18.598;2023-09-12T11:37:35;9.70;;;7.90;;
57047;SDS011;42934;54.294;18.598;2023-09-12T11:40:16;11.80;;;7.97;;
57047;SDS011;42934;54.294;18.598;2023-09-12T11:42:51;9.85;;;8.40;;
57047;SDS011;42934;54.294;18.598;2023-09-12T11:47:50;11.88;;;8.13;;
57047;SDS011;42934;54.294;18.598;2023-09-12T11:50:26;11.65;;;8.70;;
57047;SDS011;42934;54.294;18.598;2023-09-12T11:53:00;15.27;;;8.38;;
57047;SDS011;42934;54.294;18.598;2023-09-12T11:55:33;12.55;;;7.97;;
57047;SDS011;42934;54.294;18.598;2023-09-12T11:58:04;15.77;;;8.57;;
57047;SDS011;42934;54.294;18.598;2023-09-12T12:00:36;10.60;;;8.45;;
57047;SDS011;42934;54.294;18.598;2023-09-12T12:05:35;14.30;;;8.20;;
57047;SDS011;42934;54.294;18.598;2023-09-12T12:08:08;11.68;;;8.07;;
57047;SDS011;42934;54.294;18.598;2023-09-12T12:13:29;11.10;;;8.15;;
57047;SDS011;42934;54.294;18.598;2023-09-12T12:16:04;9.65;;;8.32;;
57047;SDS011;42934;54.294;18.598;2023-09-12T12:18:43;11.57;;;8.45;;
57047;SDS011;42934;54.294;18.598;2023-09-12T12:21:13;16.70;;;9.27;;
57047;SDS011;42934;54.294;18.598;2023-09-12T12:23:43;12.35;;;8.52;;
57047;SDS011;42934;54.294;18.598;2023-09-12T12:26:14;9.55;;;8.50;;
57047;SDS011;42934;54.294;18.598;2023-09-12T12:28:43;14.00;;;8.57;;
57047;SDS011;42934;54.294;18.598;2023-09-12T12:31:12;12.98;;;8.77;;
57047;SDS011;42934;54.294;18.598;2023-09-12T12:36:40;14.38;;;9.02;;
57047;SDS011;42934;54.294;18.598;2023-09-12T12:39:23;9.85;;;7.70;;
57047;SDS011;42934;54.294;18.598;2023-09-12T12:41:54;16.80;;;9.18;;
57047;SDS011;42934;54.294;18.598;2023-09-12T12:44:31;16.17;;;8.35;;
57047;SDS011;42934;54.294;18.598;2023-09-12T12:47:08;17.80;;;8.68;;
57047;SDS011;42934;54.294;18.598;2023-09-12T12:49:39;13.60;;;8.75;;
57047;SDS011;42934;54.294;18.598;2023-09-12T12:52:09;13.70;;;8.10;;
57047;SDS011;42934;54.294;18.598;2023-09-12T12:54:41;13.88;;;8.85;;
57047;SDS011;42934;54.294;18.598;2023-09-12T12:57:12;13.80;;;9.32;;
57047;SDS011;42934;54.294;18.598;2023-09-12T12:59:46;13.90;;;8.60;;
57047;SDS011;42934;54.294;18.598;2023-09-12T13:02:17;9.50;;;8.57;;
57047;SDS011;42934;54.294;18.598;2023-09-12T13:04:47;14.55;;;8.57;;
57047;SDS011;42934;54.294;18.598;2023-09-12T13:07:16;12.05;;;8.27;;
57047;SDS011;42934;54.294;18.598;2023-09-12T13:09:46;17.40;;;8.45;;
57047;SDS011;42934;54.294;18.598;2023-09-12T13:12:17;21.67;;;8.30;;
57047;SDS011;42934;54.294;18.598;2023-09-12T13:14:46;13.95;;;8.05;;
57047;SDS011;42934;54.294;18.598;2023-09-12T13:17:16;8.27;;;7.30;;
57047;SDS011;42934;54.294;18.598;2023-09-12T13:19:49;10.05;;;8.02;;
57047;SDS011;42934;54.294;18.598;2023-09-12T13:24:49;11.77;;;8.40;;
57047;SDS011;42934;54.294;18.598;2023-09-12T13:27:20;22.27;;;8.10;;
57047;SDS011;42934;54.294;18.598;2023-09-12T13:29:50;22.30;;;7.50;;
57047;SDS011;42934;54.294;18.598;2023-09-12T13:32:19;10.80;;;6.68;;
57047;SDS011;42934;54.294;18.598;2023-09-12T13:34:49;12.05;;;7.55;;
57047;SDS011;42934;54.294;18.598;2023-09-12T13:37:18;11.63;;;7.80;;
57047;SDS011;42934;54.294;18.598;2023-09-12T13:39:49;20.08;;;7.80;;
57047;SDS011;42934;54.294;18.598;2023-09-12T13:42:19;12.10;;;7.57;;
57047;SDS011;42934;54.294;18.598;2023-09-12T13:44:51;19.50;;;8.02;;
57047;SDS011;42934;54.294;18.598;2023-09-12T13:47:21;21.42;;;7.45;;
57047;SDS011;42934;54.294;18.598;2023-09-12T13:49:52;13.43;;;7.68;;
57047;SDS011;42934;54.294;18.598;2023-09-12T13:52:25;16.48;;;7.55;;
57047;SDS011;42934;54.294;18.598;2023-09-12T13:54:55;25.92;;;7.90;;
57047;SDS011;42934;54.294;18.598;2023-09-12T13:57:26;10.00;;;7.28;;
57047;SDS011;42934;54.294;18.598;2023-09-12T14:00:00;16.92;;;7.78;;
57047;SDS011;42934;54.294;18.598;2023-09-12T14:02:35;19.52;;;7.38;;
57047;SDS011;42934;54.294;18.598;2023-09-12T14:05:04;18.17;;;7.55;;
57047;SDS011;42934;54.294;18.598;2023-09-12T14:07:40;16.40;;;7.88;;
57047;SDS011;42934;54.294;18.598;2023-09-12T14:10:10;13.00;;;7.82;;
57047;SDS011;42934;54.294;18.598;2023-09-12T14:12:56;16.23;;;7.80;;
57047;SDS011;42934;54.294;18.598;2023-09-12T14:15:45;23.33;;;7.72;;
57047;SDS011;42934;54.294;18.598;2023-09-12T14:18:18;12.23;;;7.45;;
57047;SDS011;42934;54.294;18.598;2023-09-12T14:20:51;16.75;;;7.47;;
57047;SDS011;42934;54.294;18.598;2023-09-12T14:23:21;23.73;;;8.45;;
57047;SDS011;42934;54.294;18.598;2023-09-12T14:25:52;11.85;;;7.43;;
57047;SDS011;42934;54.294;18.598;2023-09-12T14:28:24;10.80;;;7.57;;
57047;SDS011;42934;54.294;18.598;2023-09-12T14:30:55;21.15;;;8.02;;
57047;SDS011;42934;54.294;18.598;2023-09-12T14:33:24;13.77;;;7.65;;
57047;SDS011;42934;54.294;18.598;2023-09-12T14:35:55;15.30;;;8.10;;
57047;SDS011;42934;54.294;18.598;2023-09-12T14:40:54;15.57;;;7.88;;
57047;SDS011;42934;54.294;18.598;2023-09-12T14:43:25;13.45;;;8.02;;
57047;SDS011;42934;54.294;18.598;2023-09-12T14:45:55;19.27;;;7.90;;
57047;SDS011;42934;54.294;18.598;2023-09-12T14:48:24;17.05;;;7.80;;
57047;SDS011;42934;54.294;18.598;2023-09-12T14:50:58;12.60;;;8.32;;
57047;SDS011;42934;54.294;18.598;2023-09-12T14:53:27;9.63;;;8.10;;
57047;SDS011;42934;54.294;18.598;2023-09-12T14:55:57;10.38;;;8.15;;
57047;SDS011;42934;54.294;18.598;2023-09-12T14:58:28;13.68;;;8.23;;
57047;SDS011;42934;54.294;18.598;2023-09-12T15:00:58;9.00;;;8.10;;
57047;SDS011;42934;54.294;18.598;2023-09-12T15:03:32;14.48;;;8.05;;
57047;SDS011;42934;54.294;18.598;2023-09-12T15:06:04;10.00;;;7.32;;
57047;SDS011;42934;54.294;18.598;2023-09-12T15:08:34;16.20;;;8.05;;
57047;SDS011;42934;54.294;18.598;2023-09-12T15:13:34;31.05;;;9.07;;
57047;SDS011;42934;54.294;18.598;2023-09-12T15:16:06;16.20;;;8.48;;
57047;SDS011;42934;54.294;18.598;2023-09-12T15:18:35;16.10;;;8.20;;
57047;SDS011;42934;54.294;18.598;2023-09-12T15:21:07;12.60;;;8.48;;